Time;durP1;ratioP1;P1;durP2;ratioP2;P2;SDS_P1;SDS_P2;PMS_P1;PMS_P2;Temp;Humidity;BMP_temperature;BMP_pressure;BME280_temperature;BME280_humidity;BME280_pressure;Samples;Min_cycle;Max_cycle;Signal;HPM_P1;HPM_P2
2022/04/21 00:00:35;;;;;;;5.00;4.53;;;6.20;99.90;;;;;;5153310;27;20444;-50
2022/04/21 00:03:03;;;;;;;5.37;4.83;;;6.40;99.90;;;;;;5152988;27;20433;-50
2022/04/21 00:05:31;;;;;;;4.93;4.43;;;6.60;99.90;;;;;;5153325;27;20856;-49
2022/04/21 00:07:58;;;;;;;5.00;4.10;;;6.60;99.90;;;;;;5153104;27;20468;-52
2022/04/21 00:10:26;;;;;;;5.80;5.30;;;6.80;99.90;;;;;;5153458;27;20436;-50
2022/04/21 00:12:55;;;;;;;5.10;4.63;;;6.90;99.90;;;;;;5152928;27;20580;-50
2022/04/21 00:15:25;;;;;;;5.00;4.50;;;7.00;99.90;;;;;;5153164;27;20441;-50
2022/04/21 00:17:52;;;;;;;5.53;4.93;;;6.90;99.90;;;;;;5152783;27;20802;-53
2022/04/21 00:20:19;;;;;;;5.10;4.70;;;6.70;99.90;;;;;;5153032;27;20437;-50
2022/04/21 00:25:31;;;;;;;5.03;4.03;;;6.50;99.90;;;;;;5153142;27;20420;-50
2022/04/21 00:27:58;;;;;;;5.60;4.57;;;6.40;99.90;;;;;;5152892;27;20432;-50
2022/04/21 00:30:27;;;;;;;5.13;4.47;;;6.40;99.90;;;;;;5152881;27;20528;-50
2022/04/21 00:32:54;;;;;;;5.47;4.97;;;6.60;99.90;;;;;;5152613;27;20507;-50
2022/04/21 00:35:21;;;;;;;4.77;4.37;;;6.50;99.90;;;;;;5152899;27;20472;-50
2022/04/21 00:37:49;;;;;;;5.50;4.97;;;6.30;99.90;;;;;;5152908;27;20437;-50
2022/04/21 00:40:18;;;;;;;5.87;4.90;;;6.50;99.90;;;;;;5152690;27;20441;-50
2022/04/21 00:42:46;;;;;;;5.77;4.97;;;6.80;99.90;;;;;;5152633;27;20983;-50
2022/04/21 00:45:13;;;;;;;5.00;4.20;;;6.90;99.90;;;;;;5153000;27;20461;-50
2022/04/21 00:47:44;;;;;;;5.40;4.70;;;6.80;99.90;;;;;;5152845;27;20471;-52
2022/04/21 00:50:13;;;;;;;5.57;5.00;;;7.00;99.90;;;;;;5152823;27;20935;-50
2022/04/21 00:52:41;;;;;;;5.30;4.80;;;6.70;99.90;;;;;;5152734;27;20499;-49
2022/04/21 00:55:09;;;;;;;8.50;4.60;;;6.80;99.90;;;;;;5152940;27;20513;-49
2022/04/21 00:57:37;;;;;;;6.80;4.90;;;6.70;99.90;;;;;;5152837;27;20528;-50
2022/04/21 01:00:06;;;;;;;5.50;5.00;;;6.80;99.90;;;;;;5152509;27;20520;-49
2022/04/21 01:02:52;;;;;;;5.20;4.80;;;6.60;99.90;;;;;;5152495;27;20926;-51
2022/04/21 01:05:33;;;;;;;5.27;3.63;;;6.50;99.90;;;;;;5152415;27;20952;-50
2022/04/21 01:08:01;;;;;;;6.80;4.47;;;6.40;99.90;;;;;;5152764;27;20445;-51
2022/04/21 01:10:29;;;;;;;4.83;4.33;;;6.20;99.90;;;;;;5152880;27;20472;-49
2022/04/21 01:12:57;;;;;;;5.20;4.70;;;6.20;99.90;;;;;;5151936;27;21065;-50
2022/04/21 01:15:24;;;;;;;5.70;4.43;;;5.90;99.90;;;;;;5152302;27;20663;-50
2022/04/21 01:17:56;;;;;;;4.87;4.37;;;5.80;99.90;;;;;;5152568;27;20436;-51
2022/04/21 01:20:25;;;;;;;5.90;4.57;;;5.70;99.90;;;;;;5152577;27;20473;-50
2022/04/21 01:22:53;;;;;;;6.10;5.03;;;5.60;99.90;;;;;;5152284;27;20441;-49
2022/04/21 01:25:20;;;;;;;4.87;4.03;;;5.60;99.90;;;;;;5152496;27;20992;-49
2022/04/21 01:27:49;;;;;;;5.10;4.60;;;5.70;99.90;;;;;;5152349;27;20531;-50
2022/04/21 01:30:16;;;;;;;5.30;4.80;;;5.80;99.90;;;;;;5152256;27;20505;-49
2022/04/21 01:32:44;;;;;;;6.43;5.13;;;5.70;99.90;;;;;;5153277;27;20559;-52
2022/04/21 01:35:12;;;;;;;5.13;4.63;;;5.50;99.90;;;;;;5155803;27;20969;-50
2022/04/21 01:43:11;;;;;;;5.67;5.10;;;5.50;99.90;;;;;;5155723;27;20479;-50
2022/04/21 01:45:38;;;;;;;5.60;5.10;;;5.80;99.90;;;;;;5155733;27;20982;-50
2022/04/21 01:48:06;;;;;;;5.00;4.57;;;5.70;99.90;;;;;;5155854;27;20860;-49
2022/04/21 01:50:33;;;;;;;5.60;5.10;;;5.80;99.90;;;;;;5155949;27;20858;-50
2022/04/21 01:53:02;;;;;;;5.30;4.80;;;5.70;99.90;;;;;;5155312;27;20464;-52
2022/04/21 01:55:29;;;;;;;5.60;5.10;;;5.70;99.90;;;;;;5156097;27;20440;-50
2022/04/21 01:57:56;;;;;;;6.00;5.40;;;5.60;99.90;;;;;;5155616;27;20437;-52
2022/04/21 02:00:23;;;;;;;5.63;5.07;;;5.60;99.90;;;;;;5155591;27;20946;-50
2022/04/21 02:02:50;;;;;;;6.17;5.40;;;5.50;99.90;;;;;;5155336;27;20508;-51
2022/04/21 02:05:18;;;;;;;6.87;5.83;;;5.60;99.90;;;;;;5155530;27;20942;-50
2022/04/21 02:07:45;;;;;;;7.40;5.33;;;5.90;99.90;;;;;;5155745;27;20524;-50
2022/04/21 02:10:14;;;;;;;5.70;5.10;;;6.10;99.90;;;;;;5155128;27;20445;-50
2022/04/21 02:12:41;;;;;;;5.53;5.03;;;6.20;99.90;;;;;;5155362;27;20473;-50
2022/04/21 02:15:09;;;;;;;5.27;4.77;;;6.20;99.90;;;;;;5155285;27;20463;-49
2022/04/21 02:17:36;;;;;;;5.47;4.97;;;6.00;99.90;;;;;;5155071;27;20960;-49
2022/04/21 02:20:05;;;;;;;6.00;4.47;;;5.60;99.90;;;;;;5155260;27;20478;-50
2022/04/21 02:22:32;;;;;;;5.73;4.60;;;5.50;99.90;;;;;;5154920;27;20873;-52
2022/04/21 02:24:59;;;;;;;5.63;5.10;;;5.50;99.90;;;;;;5155028;27;20503;-50
2022/04/21 02:27:27;;;;;;;6.47;5.57;;;5.40;99.90;;;;;;5155113;27;20436;-49
2022/04/21 02:29:54;;;;;;;8.13;5.87;;;5.30;99.90;;;;;;5154931;27;20441;-53
2022/04/21 02:32:21;;;;;;;5.20;4.80;;;5.20;99.90;;;;;;5154734;27;20520;-49
2022/04/21 02:34:48;;;;;;;5.97;5.40;;;5.20;99.90;;;;;;5154666;27;20486;-50
2022/04/21 02:37:15;;;;;;;6.33;5.63;;;5.10;99.90;;;;;;5154846;27;20483;-50
2022/04/21 02:39:42;;;;;;;5.80;5.20;;;5.40;99.90;;;;;;5154867;27;20515;-49
2022/04/21 02:42:10;;;;;;;7.23;5.30;;;5.60;99.90;;;;;;5154714;27;20441;-51
2022/04/21 02:44:38;;;;;;;5.90;5.23;;;5.80;99.90;;;;;;5153728;27;20548;-49
2022/04/21 02:47:07;;;;;;;5.53;5.03;;;5.80;99.90;;;;;;5154661;27;20441;-50
2022/04/21 02:49:35;;;;;;;5.53;5.03;;;5.70;99.90;;;;;;5154770;27;20949;-50
2022/04/21 02:52:02;;;;;;;6.47;5.07;;;5.60;99.90;;;;;;5154643;27;20462;-53
2022/04/21 02:57:23;;;;;;;6.80;4.90;;;5.70;99.90;;;;;;5154658;27;20490;-54
2022/04/21 02:59:53;;;;;;;5.27;4.77;;;5.70;99.90;;;;;;5155011;27;20959;-50
2022/04/21 03:02:21;;;;;;;5.50;4.30;;;5.30;99.90;;;;;;5154037;27;20978;-52
2022/04/21 03:04:49;;;;;;;5.10;4.60;;;5.00;99.90;;;;;;5154306;27;20468;-50
2022/04/21 03:07:17;;;;;;;5.27;4.80;;;5.00;99.90;;;;;;5154310;27;20825;-50
2022/04/21 03:09:45;;;;;;;5.30;4.80;;;4.90;99.90;;;;;;5153958;27;20946;-50
2022/04/21 03:12:12;;;;;;;8.13;4.30;;;4.80;99.90;;;;;;5154000;27;20437;-50
2022/04/21 03:14:40;;;;;;;8.30;4.77;;;4.80;99.90;;;;;;5154349;27;20959;-49
2022/04/21 03:17:10;;;;;;;4.90;4.43;;;5.20;99.90;;;;;;5154376;27;20441;-50
2022/04/21 03:19:38;;;;;;;4.90;4.40;;;5.00;99.90;;;;;;5154395;27;20436;-50
2022/04/21 03:24:50;;;;;;;5.07;4.57;;;4.60;99.90;;;;;;5176065;22;20541;-53
2022/04/21 03:27:17;;;;;;;5.17;4.67;;;4.70;99.90;;;;;;5133298;27;20434;-49
2022/04/21 03:29:44;;;;;;;6.03;5.40;;;4.70;99.90;;;;;;5133175;27;20510;-49
2022/04/21 03:32:13;;;;;;;5.93;5.33;;;4.50;99.90;;;;;;5133264;27;20864;-50
2022/04/21 03:34:42;;;;;;;6.87;6.20;;;4.70;99.90;;;;;;5132357;27;20496;-52
2022/04/21 03:37:10;;;;;;;5.90;5.40;;;4.90;99.90;;;;;;5133224;27;20469;-52
2022/04/21 03:39:37;;;;;;;6.33;5.63;;;4.70;99.90;;;;;;5132950;27;20955;-51
2022/04/21 03:42:05;;;;;;;5.53;5.00;;;4.30;99.90;;;;;;5133012;27;20472;-51
2022/04/21 03:44:33;;;;;;;6.30;5.70;;;4.20;99.90;;;;;;5132852;27;20512;-50
2022/04/21 03:47:00;;;;;;;6.67;5.90;;;4.50;99.90;;;;;;5133065;27;20490;-50
2022/04/21 03:49:29;;;;;;;6.10;4.87;;;4.70;99.90;;;;;;5132712;27;20859;-50
2022/04/21 03:51:57;;;;;;;5.60;4.83;;;4.40;99.90;;;;;;5132543;27;20479;-50
2022/04/21 03:54:24;;;;;;;6.50;5.90;;;4.40;99.90;;;;;;5132295;27;20483;-49
2022/04/21 03:56:51;;;;;;;6.60;6.00;;;4.60;99.90;;;;;;5132507;27;20886;-50
2022/04/21 03:59:18;;;;;;;5.83;5.30;;;4.60;99.90;;;;;;5132675;27;20459;-51
2022/04/21 04:01:45;;;;;;;6.93;6.23;;;4.60;99.90;;;;;;5132718;27;20461;-49
2022/04/21 04:04:13;;;;;;;7.37;6.00;;;4.30;99.90;;;;;;5132262;27;20486;-53
2022/04/21 04:12:11;;;;;;;8.77;8.07;;;4.90;99.90;;;;;;5132494;27;20454;-49
2022/04/21 04:14:39;;;;;;;9.57;6.80;;;5.10;99.90;;;;;;5132050;27;20979;-50
2022/04/21 04:17:06;;;;;;;8.00;7.30;;;5.40;99.90;;;;;;5132741;27;20441;-50
2022/04/21 04:19:34;;;;;;;8.13;7.40;;;5.30;99.90;;;;;;5132432;27;20532;-50
2022/04/21 04:22:03;;;;;;;7.87;6.70;;;5.30;99.90;;;;;;5132214;27;20448;-50
2022/04/21 04:24:30;;;;;;;8.07;5.77;;;5.40;99.90;;;;;;5131914;27;21010;-50
2022/04/21 04:26:57;;;;;;;7.03;5.77;;;5.30;99.90;;;;;;5132557;27;20513;-49
2022/04/21 04:29:25;;;;;;;6.57;5.97;;;5.50;99.90;;;;;;5132223;27;20440;-51
2022/04/21 04:31:53;;;;;;;5.93;4.70;;;5.60;99.90;;;;;;5132244;27;20434;-49
2022/04/21 04:34:20;;;;;;;5.20;4.80;;;5.30;99.90;;;;;;5131437;28;20481;-49
2022/04/21 04:36:47;;;;;;;4.70;4.30;;;5.50;99.90;;;;;;5132071;28;20477;-49
2022/04/21 04:39:16;;;;;;;6.30;5.70;;;5.10;99.90;;;;;;5131915;28;20982;-49
2022/04/21 04:44:28;;;;;;;7.57;6.57;;;4.60;99.90;;;;;;5131815;28;20444;-50
2022/04/21 04:46:54;;;;;;;8.00;6.10;;;4.20;99.90;;;;;;5132371;28;20472;-51
2022/04/21 04:49:21;;;;;;;7.57;6.77;;;4.00;99.90;;;;;;5132368;28;20506;-49
2022/04/21 04:51:48;;;;;;;5.47;4.97;;;4.40;99.90;;;;;;5132139;28;20812;-50
2022/04/21 04:54:17;;;;;;;5.93;5.37;;;4.40;99.90;;;;;;5131424;28;20481;-52
2022/04/21 04:56:46;;;;;;;5.33;4.83;;;4.30;99.90;;;;;;5132089;28;20449;-50
2022/04/21 04:59:13;;;;;;;5.63;5.13;;;4.20;99.90;;;;;;5132429;28;20469;-49
2022/04/21 05:01:42;;;;;;;5.77;5.30;;;4.10;99.90;;;;;;5131982;28;20476;-49
2022/04/21 05:04:10;;;;;;;6.97;6.27;;;4.00;99.90;;;;;;5131618;28;20534;-50
2022/04/21 05:06:39;;;;;;;6.43;5.83;;;3.90;99.90;;;;;;5132058;27;20441;-47
2022/04/21 05:09:09;;;;;;;5.53;5.00;;;3.80;99.90;;;;;;5135576;27;20477;-49
2022/04/21 05:11:37;;;;;;;10.43;8.07;;;3.90;99.90;;;;;;5135424;27;20449;-49
2022/04/21 05:14:05;;;;;;;8.97;7.50;;;4.10;99.90;;;;;;5135757;27;20525;-49
2022/04/21 05:16:32;;;;;;;30.57;8.20;;;4.30;99.90;;;;;;5135327;27;20437;-50
2022/04/21 05:18:59;;;;;;;6.93;6.17;;;4.40;99.90;;;;;;5135225;27;20437;-49
2022/04/21 05:21:26;;;;;;;6.73;6.03;;;4.70;99.90;;;;;;5135908;27;20483;-50
2022/04/21 05:23:58;;;;;;;8.03;7.10;;;4.70;99.90;;;;;;5135291;27;20469;-52
2022/04/21 05:26:26;;;;;;;6.47;5.87;;;5.00;99.90;;;;;;5135842;27;20516;-48
2022/04/21 05:28:56;;;;;;;282.47;32.40;;;5.30;99.90;;;;;;5135850;27;20434;-50
2022/04/21 05:31:22;;;;;;;33.87;10.03;;;5.20;99.90;;;;;;5135666;27;20865;-50
2022/04/21 05:33:50;;;;;;;11.87;6.57;;;5.30;99.90;;;;;;5135170;27;20504;-51
2022/04/21 05:36:18;;;;;;;6.00;5.43;;;5.20;99.90;;;;;;5134243;27;20528;-52
2022/04/21 05:38:47;;;;;;;6.90;5.90;;;5.20;99.90;;;;;;5134841;27;20923;-50
2022/04/21 05:41:15;;;;;;;7.20;6.50;;;5.30;99.90;;;;;;5134963;27;20452;-49
2022/04/21 05:43:44;;;;;;;6.30;5.80;;;5.50;99.90;;;;;;5134711;27;20490;-49
2022/04/21 05:46:14;;;;;;;6.23;5.47;;;5.30;99.90;;;;;;5135243;27;20479;-51
2022/04/21 05:48:42;;;;;;;7.30;6.60;;;5.30;99.90;;;;;;5134869;27;20433;-53
2022/04/21 05:51:10;;;;;;;5.90;5.40;;;5.30;99.90;;;;;;5135189;27;20984;-52
2022/04/21 05:53:39;;;;;;;7.53;6.80;;;5.30;99.90;;;;;;5134812;27;20475;-51
2022/04/21 05:56:07;;;;;;;6.53;5.93;;;5.00;99.90;;;;;;5135143;27;20468;-50
2022/04/21 05:58:36;;;;;;;6.27;5.77;;;5.00;99.90;;;;;;5134931;27;20494;-49
2022/04/21 06:01:07;;;;;;;7.73;6.10;;;4.70;99.90;;;;;;5135115;27;20939;-51
2022/04/21 06:03:35;;;;;;;7.00;6.30;;;4.60;99.90;;;;;;5134886;27;20438;-49
2022/04/21 06:06:03;;;;;;;9.90;6.70;;;5.00;99.90;;;;;;5134488;27;20438;-49
2022/04/21 06:08:30;;;;;;;8.40;7.00;;;4.80;99.90;;;;;;5133646;27;20469;-50
2022/04/21 06:10:57;;;;;;;8.40;7.40;;;4.50;99.90;;;;;;5133093;27;20524;-51
2022/04/21 06:13:24;;;;;;;11.80;10.50;;;4.30;99.90;;;;;;5132672;27;20470;-50
2022/04/21 06:15:51;;;;;;;17.70;12.30;;;4.40;99.90;;;;;;5132647;27;20445;-50
2022/04/21 06:18:18;;;;;;;10.00;8.63;;;4.80;99.90;;;;;;5132409;27;20437;-51
2022/04/21 06:20:47;;;;;;;10.67;9.67;;;4.90;99.90;;;;;;5132643;27;20444;-49
2022/04/21 06:23:14;;;;;;;9.67;8.67;;;4.80;99.90;;;;;;5134324;27;20434;-50
2022/04/21 06:25:41;;;;;;;57.87;14.30;;;4.30;99.90;;;;;;5134317;27;20521;-52
2022/04/21 06:28:08;;;;;;;8.43;7.63;;;4.20;99.90;;;;;;5134438;27;20524;-49
2022/04/21 06:30:35;;;;;;;9.73;8.83;;;4.50;99.90;;;;;;5134158;27;20936;-52
2022/04/21 06:33:03;;;;;;;9.13;8.10;;;4.50;99.90;;;;;;5132806;27;20465;-51
2022/04/21 06:35:30;;;;;;;6.97;6.27;;;4.30;99.90;;;;;;5132283;27;21161;-49
2022/04/21 06:37:59;;;;;;;12.63;6.37;;;4.20;99.90;;;;;;5132563;27;20532;-49
2022/04/21 06:40:26;;;;;;;7.47;6.57;;;4.20;99.90;;;;;;5132434;27;20516;-50
2022/04/21 06:42:53;;;;;;;8.37;7.50;;;4.40;99.90;;;;;;5132308;27;20480;-49
2022/04/21 06:48:04;;;;;;;7.80;7.10;;;5.00;99.90;;;;;;5134447;27;20417;-49
2022/04/21 06:50:35;;;;;;;8.23;7.37;;;5.10;99.90;;;;;;5134286;27;20490;-50
2022/04/21 06:53:05;;;;;;;9.03;7.30;;;5.30;99.90;;;;;;5133918;27;20473;-50
2022/04/21 06:55:33;;;;;;;9.17;7.73;;;5.60;99.90;;;;;;5133671;27;20567;-50
2022/04/21 06:58:00;;;;;;;9.30;8.40;;;5.80;99.90;;;;;;5133806;27;20924;-50
2022/04/21 07:00:27;;;;;;;7.40;6.70;;;6.10;99.90;;;;;;5133814;27;20502;-50
2022/04/21 07:02:57;;;;;;;6.43;5.83;;;6.30;99.90;;;;;;5133392;27;20936;-49
2022/04/21 07:05:25;;;;;;;11.23;7.10;;;6.40;99.90;;;;;;5133376;27;20466;-53
2022/04/21 07:07:52;;;;;;;8.33;7.53;;;6.50;99.90;;;;;;5133321;27;20537;-53
2022/04/21 07:10:22;;;;;;;10.90;9.90;;;6.70;99.90;;;;;;5133428;27;20857;-50
2022/04/21 07:12:49;;;;;;;10.83;9.73;;;6.70;99.90;;;;;;5132988;27;20480;-50
2022/04/21 07:15:16;;;;;;;10.40;9.00;;;6.80;99.90;;;;;;5131691;27;20510;-50
2022/04/21 07:17:43;;;;;;;12.00;7.47;;;6.80;99.90;;;;;;5131702;27;20932;-49
2022/04/21 07:20:12;;;;;;;7.20;6.50;;;7.00;99.90;;;;;;5131287;27;20989;-50
2022/04/21 07:22:39;;;;;;;8.80;7.33;;;7.20;99.90;;;;;;5131681;27;20443;-52
2022/04/21 07:25:08;;;;;;;8.70;7.83;;;7.40;99.90;;;;;;5128417;27;20553;-50
2022/04/21 07:27:38;;;;;;;8.40;7.67;;;7.50;99.90;;;;;;5131893;27;20444;-52
2022/04/21 07:30:06;;;;;;;8.37;7.50;;;7.70;99.90;;;;;;5132668;27;20448;-50
2022/04/21 07:32:33;;;;;;;7.80;7.00;;;7.70;99.90;;;;;;5132910;27;20450;-49
2022/04/21 07:35:01;;;;;;;8.40;7.30;;;7.70;99.90;;;;;;5132451;27;20913;-50
2022/04/21 07:37:30;;;;;;;7.83;7.13;;;8.20;99.90;;;;;;5133257;27;20500;-50
2022/04/21 07:39:57;;;;;;;7.47;6.73;;;8.30;99.90;;;;;;5132591;27;20532;-48
2022/04/21 07:42:24;;;;;;;7.50;6.80;;;8.40;99.90;;;;;;5132595;27;20433;-51
2022/04/21 07:44:52;;;;;;;10.47;9.47;;;8.60;99.90;;;;;;5131068;27;20450;-50
2022/04/21 07:47:20;;;;;;;10.23;7.40;;;8.90;99.90;;;;;;5131453;27;20502;-50
2022/04/21 07:49:47;;;;;;;10.47;8.37;;;9.20;99.90;;;;;;5131107;27;21038;-51
2022/04/21 07:55:08;;;;;;;7.77;7.07;;;9.70;99.90;;;;;;5131059;27;20640;-51
2022/04/21 07:57:35;;;;;;;7.50;6.80;;;9.80;99.90;;;;;;5131275;27;20540;-49
2022/04/21 08:00:05;;;;;;;7.13;6.43;;;9.90;99.90;;;;;;5133158;27;20550;-50
2022/04/21 08:02:32;;;;;;;8.80;7.87;;;9.60;99.90;;;;;;5132562;27;20446;-50
2022/04/21 08:04:59;;;;;;;14.93;8.27;;;10.10;99.90;;;;;;5125509;27;20454;-50
2022/04/21 08:07:26;;;;;;;8.07;6.53;;;10.20;99.90;;;;;;5114762;27;20462;-50
2022/04/21 08:09:53;;;;;;;12.33;8.57;;;10.40;99.90;;;;;;5112211;28;20504;-50
2022/04/21 08:12:20;;;;;;;9.17;7.17;;;11.00;99.90;;;;;;5111871;28;20522;-50
2022/04/21 08:14:47;;;;;;;8.07;7.37;;;11.40;99.90;;;;;;5112085;28;20537;-50
2022/04/21 08:17:15;;;;;;;6.73;6.13;;;12.00;99.90;;;;;;5111826;28;20482;-53
2022/04/21 08:19:42;;;;;;;20.10;7.07;;;12.20;99.90;;;;;;5111801;28;20434;-51
2022/04/21 08:22:09;;;;;;;36.43;8.80;;;12.50;99.90;;;;;;5112172;28;20603;-50
2022/04/21 08:32:52;;;;;;;6.30;5.70;;;12.30;99.90;;;;;;5109950;28;20554;-50
2022/04/21 08:35:19;;;;;;;9.63;6.90;;;12.10;99.90;;;;;;5109546;28;20478;-50
2022/04/21 08:37:46;;;;;;;6.80;6.10;;;11.40;99.90;;;;;;5110087;28;20446;-50
2022/04/21 08:40:13;;;;;;;7.83;7.07;;;11.50;99.90;;;;;;5110429;28;20446;-50
2022/04/21 08:42:43;;;;;;;16.50;7.43;;;11.40;99.90;;;;;;5112782;28;20967;-52
2022/04/21 08:45:12;;;;;;;8.77;6.80;;;11.30;99.90;;;;;;5116181;28;20493;-50
2022/04/21 08:47:42;;;;;;;6.20;5.70;;;11.50;99.90;;;;;;5115763;28;20471;-50
2022/04/21 08:50:12;;;;;;;6.20;5.70;;;11.70;99.90;;;;;;5115447;28;20452;-50
2022/04/21 08:52:41;;;;;;;6.70;6.10;;;11.70;99.90;;;;;;5114180;28;20442;-51
2022/04/21 08:55:09;;;;;;;9.57;7.83;;;11.30;99.90;;;;;;5114016;28;20568;-51
2022/04/21 08:57:36;;;;;;;17.00;10.37;;;11.00;99.90;;;;;;5125727;27;20465;-50
2022/04/21 09:00:05;;;;;;;9.00;6.70;;;11.40;99.90;;;;;;5134442;27;20448;-51
2022/04/21 09:02:36;;;;;;;7.07;6.47;;;11.80;99.90;;;;;;5134053;27;21010;-52
2022/04/21 09:05:04;;;;;;;10.93;6.70;;;11.90;99.90;;;;;;5134538;27;20457;-50
2022/04/21 09:07:32;;;;;;;6.83;6.13;;;11.90;99.90;;;;;;5136105;27;20478;-51
2022/04/21 09:10:08;;;;;;;7.53;6.87;;;12.30;99.90;;;;;;5135763;27;20528;-51
2022/04/21 09:12:36;;;;;;;6.67;5.90;;;12.30;99.90;;;;;;5135741;27;20492;-50
2022/04/21 09:15:08;;;;;;;25.53;8.20;;;12.20;99.90;;;;;;5135580;27;20469;-50
2022/04/21 09:17:46;;;;;;;7.23;6.53;;;12.30;99.90;;;;;;5135989;27;20449;-49
2022/04/21 09:20:17;;;;;;;6.50;5.90;;;12.50;99.90;;;;;;5135842;27;20477;-50
2022/04/21 09:22:52;;;;;;;6.50;5.90;;;12.40;99.90;;;;;;5135720;27;20473;-52
2022/04/21 09:25:20;;;;;;;7.30;6.60;;;12.10;99.90;;;;;;5137199;27;20472;-49
2022/04/21 09:27:49;;;;;;;6.87;6.20;;;12.00;99.90;;;;;;5135406;27;20443;-51
2022/04/21 09:30:16;;;;;;;5.53;5.03;;;12.00;99.90;;;;;;5135296;27;20439;-50
2022/04/21 09:32:52;;;;;;;7.17;6.47;;;12.00;99.90;;;;;;5135257;27;20469;-50
2022/04/21 09:35:19;;;;;;;6.90;6.30;;;12.20;99.90;;;;;;5134884;27;20500;-49
2022/04/21 09:37:52;;;;;;;9.77;6.53;;;12.40;99.90;;;;;;5135530;27;20491;-50
2022/04/21 09:40:22;;;;;;;7.07;6.47;;;12.50;99.90;;;;;;5135381;27;20470;-52
2022/04/21 09:42:56;;;;;;;7.17;6.50;;;12.70;99.90;;;;;;5135138;27;20495;-49
2022/04/21 09:48:20;;;;;;;7.40;6.60;;;12.80;99.90;;;;;;5134540;27;20413;-51
2022/04/21 09:50:51;;;;;;;7.00;6.40;;;12.90;99.90;;;;;;5133758;27;20433;-50
2022/04/21 09:53:23;;;;;;;7.43;6.73;;;13.10;99.90;;;;;;5133194;27;20954;-49
2022/04/21 09:55:51;;;;;;;7.97;7.30;;;13.20;99.90;;;;;;5133496;27;20841;-50
2022/04/21 09:58:18;;;;;;;7.97;7.27;;;13.30;99.90;;;;;;5133307;27;20437;-49
2022/04/21 10:00:46;;;;;;;8.50;7.77;;;13.30;99.90;;;;;;5133637;27;20528;-50
2022/04/21 10:03:14;;;;;;;7.93;7.23;;;13.40;99.90;;;;;;5133514;27;20465;-51
2022/04/21 10:05:42;;;;;;;9.63;7.00;;;13.50;99.90;;;;;;5135215;27;20529;-49
2022/04/21 10:08:11;;;;;;;7.90;7.20;;;13.60;99.90;;;;;;5134533;27;20955;-49
2022/04/21 10:10:40;;;;;;;7.30;6.60;;;13.80;99.90;;;;;;5133157;27;20438;-50
2022/04/21 10:13:08;;;;;;;7.37;6.77;;;13.80;99.90;;;;;;5132882;27;20451;-50
2022/04/21 10:15:36;;;;;;;7.73;6.67;;;13.80;99.90;;;;;;5132937;27;20832;-50
2022/04/21 10:18:06;;;;;;;5.50;5.00;;;13.80;99.90;;;;;;5133143;27;20624;-50
2022/04/21 10:20:34;;;;;;;7.67;6.87;;;13.90;99.90;;;;;;5133007;27;20819;-49
2022/04/21 10:23:03;;;;;;;5.73;5.23;;;14.10;99.90;;;;;;5133001;27;20481;-50
2022/04/21 10:25:40;;;;;;;7.87;6.30;;;14.20;99.90;;;;;;5133602;27;20470;-50
2022/04/21 10:28:37;;;;;;;7.03;6.33;;;14.40;99.90;;;;;;5133626;28;20999;-49
2022/04/21 10:31:33;;;;;;;6.93;6.07;;;14.30;99.90;;;;;;5129950;28;21119;-50
2022/04/21 10:34:04;;;;;;;12.57;9.20;;;14.30;99.90;;;;;;5129895;28;21025;-47
2022/04/21 10:36:42;;;;;;;8.10;7.40;;;14.30;99.90;;;;;;5118282;28;20506;-50
2022/04/21 10:39:11;;;;;;;12.43;11.13;;;14.30;99.90;;;;;;5111014;28;20983;-52
2022/04/21 10:41:39;;;;;;;6.03;5.50;;;14.40;99.90;;;;;;5110617;28;20881;-50
2022/04/21 10:44:13;;;;;;;7.73;6.17;;;14.50;99.90;;;;;;5110695;28;20455;-50
2022/04/21 10:46:40;;;;;;;6.67;6.17;;;14.60;99.90;;;;;;5111527;28;20632;-49
2022/04/21 10:49:09;;;;;;;11.33;7.00;;;14.60;99.90;;;;;;5112378;28;20438;-49
2022/04/21 10:58:50;;;;;;;6.10;5.50;;;14.80;99.90;;;;;;5110788;28;20506;-50
2022/04/21 11:01:28;;;;;;;8.17;5.93;;;14.90;99.90;;;;;;5062683;28;20521;-51
2022/04/21 11:04:09;;;;;;;5.20;4.70;;;15.00;99.30;;;;;;5110324;28;20462;-50
2022/04/21 11:06:45;;;;;;;5.40;4.90;;;14.90;99.90;;;;;;5111132;28;20900;-49
2022/04/21 11:09:40;;;;;;;6.03;5.50;;;15.10;99.90;;;;;;5112581;28;20442;-49
2022/04/21 11:12:08;;;;;;;5.33;4.93;;;15.40;99.90;;;;;;5107508;28;20521;-47
2022/04/21 11:14:36;;;;;;;6.70;5.93;;;15.60;99.90;;;;;;5110707;28;20537;-49
2022/04/21 11:17:06;;;;;;;5.10;4.70;;;15.50;99.90;;;;;;5110328;28;20929;-52
2022/04/21 11:19:40;;;;;;;6.20;5.60;;;15.50;99.90;;;;;;5110459;28;21012;-49
2022/04/21 11:22:08;;;;;;;4.97;4.47;;;15.60;98.60;;;;;;5110461;28;20447;-47
2022/04/21 11:25:04;;;;;;;5.87;5.37;;;15.70;99.90;;;;;;5093646;28;182758;-49
2022/04/21 11:27:34;;;;;;;6.00;5.40;;;15.90;99.90;;;;;;5109482;28;20530;-49
2022/04/21 11:30:03;;;;;;;5.37;4.87;;;15.70;98.40;;;;;;5112830;28;20449;-50
2022/04/21 11:32:31;;;;;;;6.30;5.77;;;15.70;99.60;;;;;;5112608;28;20499;-49
2022/04/21 11:35:00;;;;;;;7.13;5.10;;;15.70;98.00;;;;;;5111354;28;20482;-50
2022/04/21 11:37:53;;;;;;;7.33;5.70;;;15.70;96.50;;;;;;5111074;28;20475;-52
2022/04/21 11:40:26;;;;;;;8.10;5.00;;;15.70;96.20;;;;;;5110681;28;20438;-49
2022/04/21 11:42:55;;;;;;;7.03;4.90;;;15.80;99.10;;;;;;5110833;28;20496;-51
2022/04/21 11:45:23;;;;;;;5.50;5.00;;;15.90;98.50;;;;;;5110670;28;20454;-50
2022/04/21 11:47:52;;;;;;;5.30;4.30;;;16.00;99.00;;;;;;5110702;28;20474;-49
2022/04/21 11:50:24;;;;;;;4.67;4.27;;;16.10;97.60;;;;;;5111583;28;20475;-49
2022/04/21 11:52:53;;;;;;;12.50;6.27;;;16.20;97.00;;;;;;5110665;28;20521;-51
2022/04/21 11:55:22;;;;;;;5.43;4.57;;;16.10;95.60;;;;;;5110542;28;20568;-50
2022/04/21 11:57:49;;;;;;;6.73;4.90;;;16.20;94.60;;;;;;5110516;28;20847;-50
2022/04/21 12:06:27;;;;;;;5.17;4.67;;;16.20;92.60;;;;;;5110442;28;20937;-49
2022/04/21 12:08:39;;;;;;;5.50;4.40;;;16.40;93.90;;;;;;5111954;28;20444;-50
2022/04/21 12:11:10;;;;;;;6.20;4.87;;;16.40;92.90;;;;;;5111914;28;20438;-48
2022/04/21 12:13:37;;;;;;;4.20;3.80;;;16.50;93.90;;;;;;5111919;28;20442;-53
2022/04/21 12:16:05;;;;;;;4.20;3.87;;;16.50;94.50;;;;;;5111864;28;20510;-48
2022/04/21 12:18:47;;;;;;;4.77;4.37;;;16.60;91.30;;;;;;5111698;28;20495;-49
2022/04/21 12:21:14;;;;;;;6.70;4.50;;;16.60;92.70;;;;;;5110633;28;20438;-51
2022/04/21 12:23:41;;;;;;;4.00;3.70;;;16.50;91.30;;;;;;5109749;28;20462;-49
2022/04/21 12:26:08;;;;;;;4.37;3.83;;;16.50;92.00;;;;;;5110638;28;20430;-49
2022/04/21 12:28:47;;;;;;;16.23;5.43;;;16.60;90.70;;;;;;5110143;28;20445;-48
2022/04/21 12:31:19;;;;;;;4.70;4.30;;;16.70;94.70;;;;;;5110182;28;20446;-49
2022/04/21 12:33:50;;;;;;;7.30;4.90;;;16.90;93.90;;;;;;5109480;28;20484;-49
2022/04/21 12:36:27;;;;;;;5.53;3.90;;;16.90;95.50;;;;;;5111094;28;20994;-48
2022/04/21 12:38:57;;;;;;;11.07;4.47;;;17.00;94.10;;;;;;5111549;28;20441;-48
2022/04/21 12:41:24;;;;;;;4.90;4.40;;;17.00;93.20;;;;;;5111850;28;20524;-48
2022/04/21 12:43:51;;;;;;;4.57;4.17;;;17.00;91.10;;;;;;5111007;28;21015;-50
2022/04/21 12:46:20;;;;;;;4.70;3.77;;;17.10;90.50;;;;;;5111665;28;20487;-48
2022/04/21 12:48:51;;;;;;;4.50;4.10;;;17.10;90.10;;;;;;5111357;28;20853;-48
2022/04/21 12:51:19;;;;;;;10.50;4.90;;;17.10;89.80;;;;;;5110288;28;20485;-49
2022/04/21 12:53:55;;;;;;;6.40;4.17;;;17.20;91.90;;;;;;5109280;28;20844;-49
2022/04/21 12:56:33;;;;;;;7.03;4.80;;;17.10;90.70;;;;;;5109839;28;20474;-48
2022/04/21 12:59:00;;;;;;;4.33;3.93;;;17.00;92.00;;;;;;5109770;28;20449;-50
2022/04/21 13:01:27;;;;;;;5.10;3.50;;;17.00;91.90;;;;;;5109728;28;20438;-48
2022/04/21 13:03:58;;;;;;;4.00;3.53;;;17.10;90.00;;;;;;5109507;28;20458;-49
2022/04/21 13:06:29;;;;;;;3.90;3.60;;;17.20;91.00;;;;;;5110427;28;20929;-48
2022/04/21 13:08:56;;;;;;;5.37;4.63;;;17.20;91.90;;;;;;5110576;28;20525;-48
2022/04/21 13:11:24;;;;;;;4.00;3.60;;;17.30;91.40;;;;;;5111232;28;20439;-48
2022/04/21 13:13:53;;;;;;;4.93;4.03;;;17.30;88.70;;;;;;5110748;28;20455;-48
2022/04/21 13:16:21;;;;;;;3.63;3.33;;;17.30;92.10;;;;;;5110793;28;21010;-48
2022/04/21 13:18:47;;;;;;;3.37;3.07;;;17.10;90.50;;;;;;5113177;28;20529;-51
2022/04/21 13:24:00;;;;;;;4.40;4.00;;;17.20;87.90;;;;;;5130052;28;20472;-50
2022/04/21 13:26:29;;;;;;;5.17;4.63;;;17.10;86.70;;;;;;5130120;28;20444;-48
2022/04/21 13:28:59;;;;;;;4.73;3.87;;;17.00;89.80;;;;;;5131720;27;20936;-48
2022/04/21 13:34:11;;;;;;;3.77;3.40;;;17.00;86.80;;;;;;5134970;27;20521;-48
2022/04/21 13:36:39;;;;;;;3.97;3.60;;;16.80;87.40;;;;;;5135179;27;20564;-47
2022/04/21 13:39:06;;;;;;;4.90;3.70;;;16.90;90.10;;;;;;5134285;27;20437;-48
2022/04/21 13:41:33;;;;;;;4.17;3.77;;;17.00;90.40;;;;;;5133869;27;20470;-49
2022/04/21 13:44:00;;;;;;;8.40;4.33;;;17.20;86.40;;;;;;5133495;27;20518;-48
2022/04/21 13:46:28;;;;;;;4.63;4.23;;;17.10;87.00;;;;;;5133705;27;20490;-50
2022/04/21 13:48:57;;;;;;;4.43;3.90;;;17.20;88.60;;;;;;5133656;27;20452;-49
2022/04/21 13:51:24;;;;;;;5.53;4.17;;;17.30;88.80;;;;;;5133949;27;20447;-49
2022/04/21 13:53:54;;;;;;;4.17;3.77;;;17.30;89.00;;;;;;5133987;27;20461;-47
2022/04/21 13:56:23;;;;;;;6.27;3.63;;;17.20;88.80;;;;;;5134963;27;20477;-47